Time;durP1;ratioP1;P1;durP2;ratioP2;P2;SDS_P1;SDS_P2;PMS_P1;PMS_P2;Temp;Humidity;BMP_temperature;BMP_pressure;BME280_temperature;BME280_humidity;BME280_pressure;Samples;Min_cycle;Max_cycle;Signal;HPM_P1;HPM_P2
2022/04/22 00:01:24;;;;;;;2.30;1.10;;;20.80;51.10;;;;;;5034730;28;20050;-57
2022/04/22 00:03:50;;;;;;;3.58;1.38;;;20.80;51.20;;;;;;5033708;28;20128;-58
2022/04/22 00:06:15;;;;;;;4.47;1.52;;;20.80;51.10;;;;;;5034504;28;20049;-58
2022/04/22 00:08:41;;;;;;;2.75;1.50;;;20.80;51.10;;;;;;5034678;28;20038;-58
2022/04/22 00:13:51;;;;;;;3.28;1.40;;;20.80;51.10;;;;;;5034556;28;20038;-58
2022/04/22 00:16:19;;;;;;;3.40;1.38;;;20.80;51.10;;;;;;5034944;28;20437;-57
2022/04/22 00:18:45;;;;;;;2.08;1.15;;;20.70;51.10;;;;;;5033477;28;20036;-57
2022/04/22 00:21:10;;;;;;;2.65;1.30;;;20.70;51.00;;;;;;5034700;28;20120;-57
2022/04/22 00:23:36;;;;;;;3.65;1.20;;;20.70;51.00;;;;;;5034791;28;20455;-57
2022/04/22 00:26:01;;;;;;;3.10;1.40;;;20.70;51.10;;;;;;5033263;28;20050;-57
2022/04/22 00:28:27;;;;;;;2.60;1.27;;;20.70;51.10;;;;;;5034588;28;20042;-57
2022/04/22 00:30:53;;;;;;;2.88;1.38;;;20.70;51.00;;;;;;5034020;28;20045;-58
2022/04/22 00:33:19;;;;;;;3.00;1.45;;;20.70;51.00;;;;;;5033650;28;20065;-57
2022/04/22 00:35:44;;;;;;;3.10;1.23;;;20.70;51.00;;;;;;5033912;28;20064;-58
2022/04/22 00:38:10;;;;;;;3.47;1.40;;;20.70;51.00;;;;;;5033784;28;20417;-57
2022/04/22 00:40:36;;;;;;;3.08;1.23;;;20.70;51.00;;;;;;5033684;28;20045;-58
2022/04/22 00:43:18;;;;;;;2.88;1.42;;;20.70;51.00;;;;;;5033530;28;20049;-57
2022/04/22 00:45:44;;;;;;;3.58;1.20;;;20.70;51.00;;;;;;5034000;28;20073;-58
2022/04/22 00:48:09;;;;;;;2.20;1.30;;;20.70;51.10;;;;;;5032232;28;20073;-57
2022/04/22 00:50:35;;;;;;;2.85;1.65;;;20.60;51.00;;;;;;5033691;28;20392;-57
2022/04/22 00:53:00;;;;;;;3.00;1.50;;;20.60;51.00;;;;;;5031664;28;20047;-58
2022/04/22 00:55:27;;;;;;;2.70;1.20;;;20.60;51.00;;;;;;5033800;28;20049;-58
2022/04/22 00:57:53;;;;;;;3.53;1.40;;;20.60;51.00;;;;;;5033340;28;20440;-57
2022/04/22 01:00:18;;;;;;;3.28;1.13;;;20.60;51.00;;;;;;5033204;28;20061;-58
2022/04/22 01:02:44;;;;;;;5.68;1.85;;;20.60;51.00;;;;;;5033626;28;20072;-58
2022/04/22 01:10:38;;;;;;;2.90;1.38;;;20.60;51.00;;;;;;5033639;28;20054;-58
2022/04/22 01:13:04;;;;;;;2.35;1.20;;;20.60;51.00;;;;;;5033498;28;20045;-58
2022/04/22 01:15:29;;;;;;;2.55;1.50;;;20.60;51.00;;;;;;5031696;28;20093;-58
2022/04/22 01:17:55;;;;;;;3.08;1.65;;;20.60;51.00;;;;;;5033225;28;20046;-58
2022/04/22 01:20:21;;;;;;;2.92;1.17;;;20.60;51.00;;;;;;5033165;28;20095;-58
2022/04/22 01:22:46;;;;;;;3.33;1.55;;;20.60;51.00;;;;;;5032548;28;20128;-58
2022/04/22 01:25:12;;;;;;;2.58;1.20;;;20.60;51.00;;;;;;5033485;28;20041;-57
2022/04/22 01:27:37;;;;;;;3.35;1.40;;;20.50;50.90;;;;;;5031901;28;20045;-57
2022/04/22 01:30:06;;;;;;;2.75;1.40;;;20.50;50.90;;;;;;5032128;28;20052;-58
2022/04/22 01:32:31;;;;;;;3.60;1.40;;;20.50;50.90;;;;;;5032868;28;20136;-58
2022/04/22 01:34:57;;;;;;;3.15;1.25;;;20.50;50.90;;;;;;5032940;28;20095;-57
2022/04/22 01:37:23;;;;;;;3.42;1.45;;;20.50;50.90;;;;;;5032583;28;20096;-58
2022/04/22 01:39:48;;;;;;;2.63;1.30;;;20.50;50.90;;;;;;5032895;28;20053;-58
2022/04/22 01:42:14;;;;;;;2.58;1.30;;;20.50;50.90;;;;;;5032498;28;20217;-58
2022/04/22 01:44:39;;;;;;;2.20;1.30;;;20.50;50.90;;;;;;5032825;28;20511;-58
2022/04/22 01:47:05;;;;;;;2.78;1.10;;;20.50;50.90;;;;;;5033229;28;20072;-57
2022/04/22 01:49:31;;;;;;;4.00;1.58;;;20.50;50.90;;;;;;5031665;28;20034;-58
2022/04/22 01:51:57;;;;;;;3.83;1.42;;;20.50;50.90;;;;;;5032612;28;20048;-58
2022/04/22 01:54:22;;;;;;;2.22;1.30;;;20.50;50.90;;;;;;5033145;28;20053;-58
2022/04/22 01:56:47;;;;;;;2.10;1.40;;;20.50;50.90;;;;;;5031969;28;20037;-58
2022/04/22 01:59:13;;;;;;;2.53;1.40;;;20.50;50.90;;;;;;5032728;28;20474;-58
2022/04/22 02:01:38;;;;;;;3.83;1.58;;;20.50;50.90;;;;;;5032212;28;20044;-57
2022/04/22 02:04:04;;;;;;;3.40;1.40;;;20.50;50.90;;;;;;5031488;28;20091;-58
2022/04/22 02:06:30;;;;;;;4.97;1.60;;;20.50;50.90;;;;;;5031909;28;20091;-58
2022/04/22 02:08:55;;;;;;;3.72;1.60;;;20.40;50.80;;;;;;5032595;28;20038;-58
2022/04/22 02:11:21;;;;;;;2.33;1.50;;;20.40;50.80;;;;;;5032116;28;20117;-57
2022/04/22 02:13:46;;;;;;;3.58;1.33;;;20.40;50.90;;;;;;5032272;28;20089;-58
2022/04/22 02:16:12;;;;;;;2.67;1.23;;;20.40;50.80;;;;;;5032512;28;20041;-58
2022/04/22 02:18:41;;;;;;;3.03;1.60;;;20.40;50.90;;;;;;5031991;28;20038;-58
2022/04/22 02:21:07;;;;;;;2.90;1.30;;;20.40;50.80;;;;;;5032465;28;20370;-58
2022/04/22 02:23:33;;;;;;;3.92;1.50;;;20.40;50.90;;;;;;5032567;28;20121;-58
2022/04/22 02:25:58;;;;;;;3.72;1.70;;;20.40;50.80;;;;;;5031580;28;20060;-58
2022/04/22 02:28:33;;;;;;;2.53;1.20;;;20.40;50.80;;;;;;5032824;28;20041;-58
2022/04/22 02:31:06;;;;;;;1.92;1.17;;;20.40;50.80;;;;;;5032201;28;20128;-58
2022/04/22 02:33:35;;;;;;;2.30;1.48;;;20.40;50.90;;;;;;5031775;28;20049;-58
2022/04/22 02:36:00;;;;;;;3.83;1.73;;;20.40;50.90;;;;;;5032122;28;20088;-58
2022/04/22 02:38:30;;;;;;;3.90;1.60;;;20.40;50.90;;;;;;5031846;28;20069;-58
2022/04/22 02:46:24;;;;;;;3.63;1.70;;;20.30;50.80;;;;;;5031604;28;20413;-58
2022/04/22 02:48:51;;;;;;;4.28;1.30;;;20.30;50.80;;;;;;5031876;28;20042;-57
2022/04/22 02:51:16;;;;;;;3.38;1.38;;;20.30;50.80;;;;;;5032053;28;20045;-58
2022/04/22 02:53:42;;;;;;;3.05;1.52;;;20.30;50.80;;;;;;5031250;28;20036;-58
2022/04/22 02:56:08;;;;;;;3.28;1.40;;;20.30;50.80;;;;;;5032363;28;20551;-58
2022/04/22 02:58:33;;;;;;;3.05;1.58;;;20.30;50.80;;;;;;5030854;28;20046;-57
2022/04/22 03:00:59;;;;;;;2.10;1.40;;;20.30;50.70;;;;;;5032534;28;20057;-58
2022/04/22 03:03:24;;;;;;;2.85;1.48;;;20.30;50.70;;;;;;5036258;28;20041;-57
2022/04/22 03:05:51;;;;;;;3.78;1.38;;;20.30;50.60;;;;;;5035598;28;20053;-58
2022/04/22 03:08:16;;;;;;;2.95;1.67;;;20.30;50.70;;;;;;5033910;28;20489;-58
2022/04/22 03:10:42;;;;;;;3.58;1.40;;;20.30;50.60;;;;;;5035736;28;20052;-57
2022/04/22 03:13:07;;;;;;;3.13;1.58;;;20.30;50.60;;;;;;5036095;28;20045;-57
2022/04/22 03:15:33;;;;;;;3.33;1.33;;;20.30;50.60;;;;;;5035231;28;20050;-58
2022/04/22 03:17:59;;;;;;;3.55;1.58;;;20.30;50.60;;;;;;5035664;28;20050;-57
2022/04/22 03:20:25;;;;;;;2.35;1.38;;;20.40;50.70;;;;;;5035666;28;20049;-58
2022/04/22 03:22:51;;;;;;;4.18;1.58;;;20.30;50.70;;;;;;5034719;28;20052;-58
2022/04/22 03:25:20;;;;;;;3.92;1.60;;;20.40;50.70;;;;;;5035371;28;20061;-57
2022/04/22 03:27:46;;;;;;;3.15;1.70;;;20.30;50.60;;;;;;5034674;28;20477;-58
2022/04/22 03:30:12;;;;;;;4.88;1.58;;;20.40;50.80;;;;;;5035445;28;20408;-58
2022/04/22 03:32:37;;;;;;;3.20;1.40;;;20.40;50.70;;;;;;5035327;28;20050;-58
2022/04/22 03:35:04;;;;;;;3.15;1.30;;;20.40;50.80;;;;;;5034371;28;20053;-58
2022/04/22 03:37:29;;;;;;;2.85;1.60;;;20.40;50.80;;;;;;5034908;28;20401;-58
2022/04/22 03:39:55;;;;;;;2.33;1.30;;;20.40;50.80;;;;;;5034413;28;20046;-57
2022/04/22 03:42:20;;;;;;;3.38;1.35;;;20.40;50.90;;;;;;5034593;28;20038;-58
2022/04/22 03:44:46;;;;;;;2.72;1.33;;;20.40;50.80;;;;;;5034697;28;20133;-58
2022/04/22 03:47:11;;;;;;;3.22;1.20;;;20.40;50.80;;;;;;5035425;28;20067;-58
2022/04/22 03:49:37;;;;;;;2.72;1.30;;;20.40;50.80;;;;;;5034650;28;20046;-58
2022/04/22 03:52:02;;;;;;;2.42;1.25;;;20.40;50.80;;;;;;5034697;28;20041;-58
2022/04/22 03:54:28;;;;;;;3.20;1.30;;;20.40;50.70;;;;;;5035090;28;20586;-57
2022/04/22 03:59:37;;;;;;;4.20;1.83;;;20.40;50.70;;;;;;5035179;28;20084;-58
2022/04/22 04:02:03;;;;;;;3.70;1.45;;;20.40;50.70;;;;;;5028629;28;20073;-58
2022/04/22 04:04:29;;;;;;;3.10;1.40;;;20.50;50.80;;;;;;5030512;28;20037;-58
2022/04/22 04:06:54;;;;;;;2.85;1.30;;;20.50;50.80;;;;;;5033775;28;20038;-58
2022/04/22 04:17:36;;;;;;;2.53;1.20;;;20.50;50.70;;;;;;5033982;28;20053;-58
2022/04/22 04:25:30;;;;;;;2.95;1.60;;;20.50;50.70;;;;;;5033639;28;20050;-57
2022/04/22 04:27:56;;;;;;;3.10;1.30;;;20.50;50.70;;;;;;5034008;28;20042;-58
2022/04/22 04:30:22;;;;;;;3.65;1.50;;;20.50;50.70;;;;;;5034689;28;20133;-58
2022/04/22 04:32:48;;;;;;;4.32;1.50;;;20.50;50.70;;;;;;5033060;28;20053;-58
2022/04/22 04:35:13;;;;;;;3.00;1.58;;;20.50;50.60;;;;;;5034379;28;20049;-57
2022/04/22 04:37:41;;;;;;;2.33;1.30;;;20.50;50.60;;;;;;5034241;28;20046;-57
2022/04/22 04:40:11;;;;;;;3.28;1.20;;;20.50;50.70;;;;;;5033492;28;20046;-57
2022/04/22 04:42:37;;;;;;;2.78;1.45;;;20.50;50.60;;;;;;5034316;28;20041;-58
2022/04/22 04:45:04;;;;;;;3.42;1.48;;;20.50;50.60;;;;;;5033494;28;20071;-57
2022/04/22 04:47:29;;;;;;;2.78;1.13;;;20.60;50.70;;;;;;5034164;28;20049;-58
2022/04/22 04:49:55;;;;;;;3.70;1.50;;;20.60;50.60;;;;;;5033995;28;20048;-58
2022/04/22 04:52:20;;;;;;;2.90;1.48;;;20.50;50.50;;;;;;5033321;28;20397;-58
2022/04/22 04:54:48;;;;;;;3.05;1.27;;;20.60;50.60;;;;;;5033804;28;20060;-58
2022/04/22 04:57:13;;;;;;;2.37;1.13;;;20.60;50.60;;;;;;5032956;28;20057;-58
2022/04/22 04:59:39;;;;;;;3.75;1.50;;;20.60;50.60;;;;;;5032920;28;20053;-58
2022/04/22 05:02:04;;;;;;;1.98;1.10;;;20.60;50.50;;;;;;5034093;28;20043;-58
2022/04/22 05:04:30;;;;;;;2.42;1.20;;;20.60;50.50;;;;;;5033780;28;20077;-57
2022/04/22 05:06:56;;;;;;;2.95;1.30;;;20.60;50.40;;;;;;5032604;28;20050;-58
2022/04/22 05:09:22;;;;;;;4.05;1.38;;;20.60;50.40;;;;;;5033698;28;20127;-57
2022/04/22 05:11:48;;;;;;;2.10;1.20;;;20.70;50.40;;;;;;5033452;28;20096;-57
2022/04/22 05:14:13;;;;;;;2.13;1.33;;;20.70;50.40;;;;;;5032965;28;20045;-57
2022/04/22 05:16:38;;;;;;;2.40;1.15;;;20.70;50.40;;;;;;5033468;28;20056;-58
2022/04/22 05:19:04;;;;;;;2.70;1.30;;;20.70;50.40;;;;;;5033962;28;20046;-58
2022/04/22 05:21:29;;;;;;;2.22;1.27;;;20.80;50.40;;;;;;5032371;28;20122;-58
2022/04/22 05:23:55;;;;;;;2.13;1.33;;;20.80;51.00;;;;;;5032100;28;20092;-58
2022/04/22 05:26:23;;;;;;;3.42;1.50;;;20.70;50.30;;;;;;5033310;28;20049;-57
2022/04/22 05:28:49;;;;;;;3.22;1.65;;;20.80;50.40;;;;;;5032510;28;20470;-58
2022/04/22 05:33:58;;;;;;;2.85;1.13;;;20.80;50.50;;;;;;5033128;28;20050;-58
2022/04/22 05:36:24;;;;;;;2.13;1.00;;;20.80;50.40;;;;;;5032344;28;20044;-58
2022/04/22 05:38:51;;;;;;;2.15;1.38;;;20.80;50.50;;;;;;5031715;28;20455;-58
2022/04/22 05:41:16;;;;;;;2.07;1.23;;;20.80;50.60;;;;;;5033078;28;20034;-58
2022/04/22 05:43:42;;;;;;;3.45;1.40;;;20.80;50.60;;;;;;5032530;28;20047;-58
2022/04/22 05:46:08;;;;;;;2.75;1.15;;;20.80;50.60;;;;;;5033214;28;20049;-58
2022/04/22 05:48:33;;;;;;;2.60;1.10;;;20.80;50.70;;;;;;5031998;28;20137;-57
2022/04/22 05:50:59;;;;;;;2.38;1.20;;;20.80;50.70;;;;;;5032564;28;20517;-58
2022/04/22 05:53:24;;;;;;;3.92;1.35;;;20.80;50.80;;;;;;5032566;28;20496;-57
2022/04/22 05:55:50;;;;;;;3.67;1.20;;;20.80;50.80;;;;;;5031977;28;20128;-57
2022/04/22 05:58:15;;;;;;;2.92;1.48;;;20.80;50.80;;;;;;5033035;28;20049;-58
2022/04/22 06:00:41;;;;;;;1.90;0.98;;;20.80;50.90;;;;;;5032754;28;20551;-58
2022/04/22 06:03:07;;;;;;;5.03;1.42;;;20.80;50.90;;;;;;5032138;28;20048;-58
2022/04/22 06:05:32;;;;;;;1.52;1.02;;;20.90;51.00;;;;;;5032704;28;20053;-57
2022/04/22 06:10:48;;;;;;;2.75;1.33;;;20.90;51.00;;;;;;5010717;28;20058;-57
2022/04/22 06:13:13;;;;;;;4.30;1.20;;;20.90;51.00;;;;;;5012928;28;20125;-57
2022/04/22 06:15:39;;;;;;;5.55;1.40;;;20.90;51.00;;;;;;5012422;28;20107;-57
2022/04/22 06:18:05;;;;;;;4.55;1.45;;;21.00;51.10;;;;;;5012067;28;20034;-58
2022/04/22 06:20:30;;;;;;;4.38;1.42;;;21.00;51.10;;;;;;5012611;28;20091;-58
2022/04/22 06:22:56;;;;;;;3.67;1.30;;;21.00;51.10;;;;;;5012395;28;20041;-57
2022/04/22 06:25:21;;;;;;;3.40;1.10;;;21.00;51.10;;;;;;5012085;28;20046;-58
2022/04/22 06:27:47;;;;;;;4.10;1.30;;;21.00;51.20;;;;;;5012676;28;20046;-57
2022/04/22 06:30:15;;;;;;;3.38;1.23;;;21.00;51.20;;;;;;5012883;28;20092;-57
2022/04/22 06:32:42;;;;;;;2.47;1.10;;;21.10;51.90;;;;;;5011606;28;20066;-59
2022/04/22 06:35:08;;;;;;;3.72;1.13;;;21.10;51.20;;;;;;5013873;28;20100;-57
2022/04/22 06:37:34;;;;;;;3.80;1.20;;;21.10;51.30;;;;;;5016377;28;20042;-57
2022/04/22 06:45:47;;;;;;;2.63;1.33;;;21.10;51.80;;;;;;5015664;28;19921;-57
2022/04/22 06:48:44;;;;;;;4.15;1.50;;;21.10;51.70;;;;;;5016580;28;20408;-57
2022/04/22 06:51:09;;;;;;;3.22;1.08;;;21.10;51.90;;;;;;5016003;28;20057;-57
2022/04/22 06:53:35;;;;;;;3.47;1.30;;;21.20;52.00;;;;;;5015611;28;20046;-56
2022/04/22 06:56:02;;;;;;;3.25;1.40;;;21.20;52.10;;;;;;5015875;28;20056;-56
2022/04/22 06:58:30;;;;;;;2.92;1.20;;;21.20;52.10;;;;;;5016669;28;20184;-57
2022/04/22 07:00:55;;;;;;;3.20;1.10;;;21.20;52.10;;;;;;5014177;28;20034;-56
2022/04/22 07:03:21;;;;;;;2.80;1.25;;;21.20;52.00;;;;;;5016327;28;20378;-57
2022/04/22 07:05:51;;;;;;;3.03;1.20;;;21.30;52.10;;;;;;5015265;28;20120;-57
2022/04/22 07:08:18;;;;;;;4.10;1.20;;;21.20;52.10;;;;;;5016243;28;20046;-57
2022/04/22 07:10:45;;;;;;;3.95;1.00;;;21.30;52.10;;;;;;5015686;28;20489;-57
2022/04/22 07:13:11;;;;;;;3.80;1.27;;;21.30;52.00;;;;;;5015470;28;20053;-57
2022/04/22 07:15:40;;;;;;;3.40;1.20;;;21.30;52.10;;;;;;5016093;28;20100;-57
2022/04/22 07:18:06;;;;;;;1.90;1.30;;;21.30;52.70;;;;;;5016100;28;20042;-57
2022/04/22 07:20:32;;;;;;;1.88;1.00;;;21.30;52.00;;;;;;5015330;28;20045;-57
2022/04/22 07:22:59;;;;;;;2.63;1.08;;;21.40;52.10;;;;;;5015686;28;20053;-57
2022/04/22 07:25:25;;;;;;;2.63;1.38;;;21.40;52.00;;;;;;5015841;28;20049;-57
2022/04/22 07:27:51;;;;;;;2.03;0.90;;;21.40;51.90;;;;;;5016255;28;20463;-57
2022/04/22 07:30:17;;;;;;;7.93;1.05;;;21.40;51.80;;;;;;5024640;28;20077;-57
2022/04/22 07:32:45;;;;;;;2.55;1.00;;;21.40;51.80;;;;;;5027494;28;20374;-57
2022/04/22 07:35:14;;;;;;;;;;;21.40;51.80;;;;;;5023205;28;20104;-57
2022/04/22 07:37:44;;;;;;;2.75;1.25;;;21.40;51.80;;;;;;5025090;28;19918;-57
2022/04/22 07:40:10;;;;;;;3.03;1.02;;;21.40;51.80;;;;;;5024194;28;20037;-58
2022/04/22 07:42:36;;;;;;;2.58;1.20;;;21.40;51.80;;;;;;5024186;28;20092;-56
2022/04/22 07:47:47;;;;;;;2.30;1.00;;;21.40;51.80;;;;;;5024812;28;20045;-57
2022/04/22 07:50:13;;;;;;;3.67;1.20;;;21.50;51.80;;;;;;5026798;28;20124;-57
2022/04/22 07:52:39;;;;;;;2.88;1.30;;;21.50;51.80;;;;;;5027713;28;20038;-57
2022/04/22 07:55:06;;;;;;;2.08;0.90;;;21.50;51.80;;;;;;5032345;28;20531;-56
2022/04/22 07:57:31;;;;;;;7.32;1.33;;;21.50;51.90;;;;;;5034271;28;20048;-57
2022/04/22 07:59:57;;;;;;;7.00;1.20;;;21.50;52.70;;;;;;5026368;28;20129;-57
2022/04/22 08:02:23;;;;;;;3.35;1.10;;;21.50;52.00;;;;;;5014009;28;20489;-57
2022/04/22 08:04:49;;;;;;;2.45;1.20;;;21.50;52.00;;;;;;5014646;28;20053;-57
2022/04/22 08:07:15;;;;;;;2.35;0.93;;;21.60;52.00;;;;;;5014991;28;20104;-57
2022/04/22 08:09:41;;;;;;;1.90;1.00;;;21.60;52.00;;;;;;5014011;28;20129;-57
2022/04/22 08:12:07;;;;;;;3.85;1.00;;;21.60;52.00;;;;;;5014895;28;20046;-58
2022/04/22 08:14:34;;;;;;;4.05;1.00;;;21.60;52.00;;;;;;5013785;28;20050;-57
2022/04/22 08:17:00;;;;;;;4.80;1.20;;;21.60;52.00;;;;;;5013929;28;20049;-57
2022/04/22 08:19:25;;;;;;;4.93;1.15;;;21.70;52.00;;;;;;5014919;28;20088;-57
2022/04/22 08:21:52;;;;;;;2.10;0.82;;;21.70;52.00;;;;;;5014239;28;20062;-56
2022/04/22 08:24:17;;;;;;;2.03;0.88;;;21.70;52.10;;;;;;5013955;28;20473;-57
2022/04/22 08:26:43;;;;;;;3.72;1.02;;;21.70;52.10;;;;;;5024585;28;20033;-57
2022/04/22 08:29:09;;;;;;;2.78;0.90;;;21.70;52.10;;;;;;5022935;28;20120;-57
2022/04/22 08:31:34;;;;;;;3.55;1.13;;;21.70;52.10;;;;;;5023506;28;20124;-57
2022/04/22 08:34:00;;;;;;;4.28;1.27;;;21.70;52.10;;;;;;5027238;28;20100;-58
2022/04/22 08:36:29;;;;;;;7.78;1.27;;;21.80;52.90;;;;;;5033379;28;20088;-58
2022/04/22 08:38:57;;;;;;;2.97;0.93;;;21.80;51.80;;;;;;5032509;28;20037;-57
2022/04/22 08:41:22;;;;;;;7.85;1.27;;;21.80;51.50;;;;;;5021139;28;20108;-58
2022/04/22 08:43:52;;;;;;;5.13;1.10;;;21.70;51.10;;;;;;5012811;28;20394;-58
2022/04/22 08:51:46;;;;;;;4.80;1.02;;;21.80;50.20;;;;;;5020158;28;20069;-58
2022/04/22 08:54:13;;;;;;;2.97;1.00;;;21.80;50.10;;;;;;5021091;28;20038;-58
2022/04/22 08:56:39;;;;;;;3.20;1.00;;;21.80;49.90;;;;;;5030551;28;20428;-57
2022/04/22 08:59:04;;;;;;;3.25;0.90;;;21.80;49.90;;;;;;5029922;28;20504;-57
2022/04/22 09:01:30;;;;;;;4.93;1.20;;;21.80;49.80;;;;;;5033505;28;20124;-57
2022/04/22 09:03:55;;;;;;;7.78;1.30;;;21.80;49.70;;;;;;5033666;28;20410;-57
2022/04/22 09:06:21;;;;;;;3.88;0.80;;;21.80;49.60;;;;;;5032582;28;20095;-57
2022/04/22 09:08:47;;;;;;;3.03;0.93;;;21.80;49.60;;;;;;5032250;28;20489;-58
2022/04/22 09:11:12;;;;;;;3.78;1.10;;;21.80;49.50;;;;;;5031532;28;20540;-58
2022/04/22 09:13:38;;;;;;;5.55;1.27;;;21.80;49.40;;;;;;5031711;28;20115;-58
2022/04/22 09:16:04;;;;;;;4.93;1.05;;;21.80;49.60;;;;;;5033652;28;20069;-58
2022/04/22 09:18:30;;;;;;;4.35;1.15;;;21.80;49.70;;;;;;5033692;28;20481;-57
2022/04/22 09:21:02;;;;;;;5.20;1.38;;;21.90;50.00;;;;;;5032352;28;20045;-58
2022/04/22 09:23:32;;;;;;;9.35;1.40;;;21.90;50.20;;;;;;5033444;28;20085;-57
2022/04/22 09:25:57;;;;;;;3.67;1.10;;;22.00;50.40;;;;;;5032496;28;20128;-57
2022/04/22 09:28:23;;;;;;;3.80;1.30;;;22.00;50.60;;;;;;5032842;28;20128;-57
2022/04/22 09:30:56;;;;;;;5.63;1.20;;;22.00;50.80;;;;;;5033120;28;20080;-57
2022/04/22 09:33:22;;;;;;;3.97;1.33;;;22.00;51.10;;;;;;5033001;28;20042;-57
2022/04/22 09:44:23;;;;;;;4.80;1.00;;;22.00;50.80;;;;;;5032808;28;20560;-57
2022/04/22 09:46:48;;;;;;;4.32;1.45;;;22.00;51.20;;;;;;5032559;28;20049;-58
2022/04/22 09:49:14;;;;;;;6.55;1.35;;;22.00;51.20;;;;;;5032438;28;20049;-57
2022/04/22 09:51:39;;;;;;;8.18;1.30;;;22.00;51.20;;;;;;5031431;28;20469;-58
2022/04/22 09:54:06;;;;;;;4.63;1.42;;;22.00;51.20;;;;;;5032967;28;20399;-57
2022/04/22 09:56:33;;;;;;;3.70;1.20;;;22.00;51.10;;;;;;5032112;28;20552;-57
2022/04/22 09:58:59;;;;;;;5.05;1.27;;;22.00;51.10;;;;;;5031038;28;20060;-57
2022/04/22 10:01:25;;;;;;;4.07;1.27;;;22.00;51.20;;;;;;5032491;28;20042;-57
2022/04/22 10:03:50;;;;;;;3.25;1.35;;;21.90;51.10;;;;;;5031830;28;20041;-57
2022/04/22 10:06:17;;;;;;;4.60;1.17;;;21.90;51.20;;;;;;5032781;28;20472;-57
2022/04/22 10:08:43;;;;;;;5.10;1.17;;;22.00;51.20;;;;;;5031636;28;20045;-57
2022/04/22 10:11:09;;;;;;;2.88;1.50;;;21.90;51.20;;;;;;5031090;28;20046;-57
2022/04/22 10:13:45;;;;;;;4.72;1.30;;;22.00;51.20;;;;;;5031457;28;20042;-57
2022/04/22 10:16:11;;;;;;;2.05;0.93;;;22.00;51.20;;;;;;5032064;28;20049;-57
2022/04/22 10:18:40;;;;;;;3.75;1.10;;;22.00;51.20;;;;;;5032817;28;20048;-58
2022/04/22 10:21:06;;;;;;;4.90;1.27;;;22.00;51.30;;;;;;5032418;28;20128;-57
2022/04/22 10:23:32;;;;;;;3.90;1.02;;;22.00;51.30;;;;;;5031733;28;20125;-57
2022/04/22 10:25:57;;;;;;;4.13;1.08;;;22.00;51.30;;;;;;5032294;28;20060;-58
2022/04/22 10:28:23;;;;;;;4.97;1.17;;;22.00;51.40;;;;;;5031763;28;20030;-57
2022/04/22 10:30:50;;;;;;;6.22;1.30;;;22.00;51.30;;;;;;5028643;28;20084;-57
2022/04/22 10:33:15;;;;;;;1.98;0.93;;;22.00;51.20;;;;;;5032210;28;20049;-57
2022/04/22 10:35:42;;;;;;;4.88;1.20;;;22.00;51.10;;;;;;5032026;28;20045;-57
2022/04/22 10:38:33;;;;;;;5.00;1.05;;;22.00;51.00;;;;;;5031993;28;20113;-57
2022/04/22 10:41:02;;;;;;;4.68;1.27;;;22.00;51.00;;;;;;5032249;28;20107;-57
2022/04/22 10:43:28;;;;;;;1.23;0.80;;;22.00;51.00;;;;;;5032257;28;20405;-57
2022/04/22 10:48:41;;;;;;;3.30;1.10;;;22.00;51.10;;;;;;5031222;28;20049;-58
2022/04/22 10:51:09;;;;;;;1.60;0.70;;;22.00;51.10;;;;;;5030378;28;20274;-60
2022/04/22 10:53:46;;;;;;;2.15;1.10;;;22.00;51.10;;;;;;5032379;28;20037;-59
2022/04/22 10:56:27;;;;;;;4.10;1.37;;;22.00;51.10;;;;;;5032378;28;20044;-58
2022/04/22 10:59:22;;;;;;;3.38;1.00;;;22.00;51.10;;;;;;5019528;28;20043;-57
2022/04/22 11:01:48;;;;;;;3.00;0.95;;;22.00;51.20;;;;;;5022041;28;20152;-57
2022/04/22 11:04:20;;;;;;;2.97;1.05;;;22.00;51.20;;;;;;5020834;28;20132;-57
2022/04/22 11:06:46;;;;;;;4.60;1.33;;;22.00;51.30;;;;;;5021164;28;20045;-57
2022/04/22 11:09:26;;;;;;;4.20;1.20;;;22.00;51.30;;;;;;5020656;28;20038;-57
2022/04/22 11:11:52;;;;;;;5.97;1.00;;;22.00;51.10;;;;;;5008934;28;20413;-61
2022/04/22 11:14:19;;;;;;;4.13;0.93;;;22.00;51.10;;;;;;5010934;28;20504;-58
2022/04/22 11:16:45;;;;;;;9.80;1.33;;;22.00;51.00;;;;;;5012297;28;20045;-58
2022/04/22 11:19:19;;;;;;;5.28;1.20;;;22.00;50.90;;;;;;5018418;28;20068;-57
2022/04/22 11:21:55;;;;;;;15.48;1.48;;;22.00;50.80;;;;;;5026898;28;20052;-58
2022/04/22 11:24:26;;;;;;;7.05;1.13;;;22.00;50.90;;;;;;5035494;28;20053;-58
2022/04/22 11:26:52;;;;;;;7.13;1.40;;;22.10;50.90;;;;;;5034809;28;20512;-57
2022/04/22 11:29:18;;;;;;;6.10;1.00;;;22.10;50.90;;;;;;5034990;28;20421;-57
2022/04/22 11:32:02;;;;;;;4.85;1.15;;;22.10;50.80;;;;;;5035091;28;20552;-58
2022/04/22 11:34:46;;;;;;;5.20;1.30;;;22.10;50.50;;;;;;5035138;28;20073;-57
2022/04/22 11:37:18;;;;;;;4.90;1.02;;;22.10;50.50;;;;;;5035320;28;20056;-57
2022/04/22 11:39:46;;;;;;;3.88;1.58;;;22.10;50.50;;;;;;5035379;28;20049;-57
2022/04/22 11:42:12;;;;;;;5.38;1.10;;;22.00;50.40;;;;;;5035015;28;20087;-58
2022/04/22 11:44:37;;;;;;;5.28;1.10;;;22.10;50.40;;;;;;5035390;28;20076;-57
2022/04/22 11:47:03;;;;;;;5.72;0.90;;;22.00;50.30;;;;;;5034646;28;20045;-58
2022/04/22 11:49:29;;;;;;;6.18;1.10;;;22.10;50.30;;;;;;5035477;28;20063;-57
2022/04/22 11:51:55;;;;;;;3.28;1.10;;;22.10;50.30;;;;;;5035052;28;20046;-57
2022/04/22 11:54:27;;;;;;;2.42;0.90;;;22.10;50.20;;;;;;5034571;28;20045;-58
2022/04/22 11:56:53;;;;;;;4.47;1.10;;;22.10;50.20;;;;;;5034071;28;20048;-57
2022/04/22 11:59:27;;;;;;;2.55;1.00;;;22.10;50.20;;;;;;5034626;28;20124;-57
2022/04/22 12:05:32;;;;;;;3.15;1.30;;;22.10;50.20;;;;;;5035147;28;20053;-57
2022/04/22 12:10:12;;;;;;;1.98;1.33;;;22.10;50.10;;;;;;5034024;28;20421;-58
2022/04/22 12:12:50;;;;;;;1.73;1.00;;;22.00;50.10;;;;;;5034876;28;20041;-58
2022/04/22 12:15:21;;;;;;;3.90;0.80;;;22.10;50.20;;;;;;5034283;28;20482;-58
2022/04/22 12:17:46;;;;;;;2.13;0.93;;;22.10;50.20;;;;;;5034381;28;20393;-58
2022/04/22 12:20:13;;;;;;;3.85;1.00;;;22.10;50.10;;;;;;5034976;28;20477;-58
2022/04/22 12:22:39;;;;;;;3.90;0.98;;;22.10;50.10;;;;;;5032249;28;20044;-58
2022/04/22 12:25:16;;;;;;;2.58;1.02;;;22.10;50.20;;;;;;5034654;28;20041;-57
2022/04/22 12:27:42;;;;;;;3.80;1.13;;;22.00;50.00;;;;;;5034164;28;20435;-58
2022/04/22 12:30:11;;;;;;;2.85;0.90;;;22.10;50.00;;;;;;5033628;28;20038;-57
2022/04/22 12:32:38;;;;;;;3.53;1.02;;;22.10;50.00;;;;;;5033823;28;20107;-58
2022/04/22 12:35:13;;;;;;;3.75;1.05;;;22.10;49.90;;;;;;5034181;28;20377;-58
2022/04/22 12:37:46;;;;;;;4.07;1.08;;;22.10;49.90;;;;;;5033274;28;20065;-57
2022/04/22 12:40:12;;;;;;;2.00;0.90;;;22.00;49.90;;;;;;5034558;28;20133;-57
2022/04/22 12:42:39;;;;;;;3.10;1.25;;;22.00;49.80;;;;;;5034597;28;20077;-57
2022/04/22 12:53:28;;;;;;;1.98;1.00;;;21.90;49.70;;;;;;5034264;28;20057;-57
2022/04/22 12:56:01;;;;;;;3.90;1.55;;;22.00;49.70;;;;;;5033993;28;20103;-57
2022/04/22 12:58:27;;;;;;;3.30;0.90;;;22.00;49.80;;;;;;5033010;28;20038;-58
2022/04/22 13:00:53;;;;;;;2.88;1.08;;;22.00;49.80;;;;;;5033763;28;20081;-58
2022/04/22 13:03:21;;;;;;;2.55;1.10;;;22.00;49.70;;;;;;5033957;28;20084;-58
2022/04/22 13:05:47;;;;;;;2.83;0.98;;;22.00;49.70;;;;;;5031683;28;20141;-57
2022/04/22 13:08:15;;;;;;;2.78;0.93;;;22.00;49.60;;;;;;5033668;28;20536;-58
2022/04/22 13:10:41;;;;;;;2.03;0.90;;;22.00;49.70;;;;;;5033405;28;20033;-57
2022/04/22 13:13:07;;;;;;;2.38;1.23;;;22.00;49.60;;;;;;5033253;28;20507;-57
2022/04/22 13:15:33;;;;;;;5.00;1.17;;;22.00;49.60;;;;;;5033833;28;20124;-58
2022/04/22 13:17:58;;;;;;;3.30;1.13;;;22.10;49.60;;;;;;5032059;28;20045;-57
2022/04/22 13:20:24;;;;;;;3.63;0.98;;;22.00;49.60;;;;;;5033086;28;20053;-57
2022/04/22 13:22:49;;;;;;;2.97;1.10;;;22.00;49.70;;;;;;5033267;28;20080;-58
2022/04/22 13:25:17;;;;;;;2.70;1.00;;;22.10;49.70;;;;;;5033642;28;20047;-57
2022/04/22 13:27:44;;;;;;;4.07;1.52;;;22.10;49.70;;;;;;5032486;28;20042;-57
2022/04/22 13:30:10;;;;;;;2.87;0.90;;;22.10;49.60;;;;;;5033539;28;20049;-57
2022/04/22 13:32:36;;;;;;;2.35;1.27;;;22.10;49.60;;;;;;5032530;28;20053;-57
2022/04/22 13:35:04;;;;;;;1.83;0.95;;;22.10;49.50;;;;;;5031724;28;20048;-57
2022/04/22 13:37:31;;;;;;;3.03;0.88;;;22.10;49.50;;;;;;5033056;28;20058;-58
2022/04/22 13:39:57;;;;;;;3.42;1.15;;;22.20;49.40;;;;;;5031949;28;20041;-57
2022/04/22 13:42:22;;;;;;;2.25;0.90;;;22.20;49.30;;;;;;5033422;28;20064;-58
2022/04/22 13:53:01;;;;;;;2.55;1.10;;;22.40;49.10;;;;;;5032767;28;20564;-57
2022/04/22 13:55:27;;;;;;;2.22;0.98;;;22.40;49.10;;;;;;5032420;28;20504;-57
2022/04/22 13:57:53;;;;;;;3.10;1.20;;;22.40;49.10;;;;;;5032774;28;20072;-57
2022/04/22 14:00:19;;;;;;;3.47;1.33;;;22.40;49.10;;;;;;5033187;28;20073;-57
2022/04/22 14:02:44;;;;;;;2.05;1.20;;;22.30;49.10;;;;;;5031692;28;20456;-57
2022/04/22 14:05:10;;;;;;;2.00;1.10;;;22.30;49.10;;;;;;5033065;28;20049;-57
2022/04/22 14:07:35;;;;;;;2.38;1.13;;;22.30;49.10;;;;;;5032940;28;20425;-58
2022/04/22 14:10:01;;;;;;;3.00;1.00;;;22.30;49.20;;;;;;5031847;28;20053;-57